Time;durP1;ratioP1;P1;durP2;ratioP2;P2;SDS_P1;SDS_P2;PMS_P1;PMS_P2;Temp;Humidity;BMP_temperature;BMP_pressure;BME280_temperature;BME280_humidity;BME280_pressure;Samples;Min_cycle;Max_cycle;Signal;HPM_P1;HPM_P2
2022/04/07 00:03:41;;;;;;;5.17;3.30;;;11.00;99.90;;;;;;10449334;28;20744;-72
2022/04/07 00:08:42;;;;;;;6.40;3.60;;;11.00;99.90;;;;;;10444482;28;20239;-71
2022/04/07 00:13:46;;;;;;;5.63;3.77;;;10.90;99.90;;;;;;10449616;28;20980;-72
2022/04/07 00:18:46;;;;;;;4.33;3.40;;;10.90;99.90;;;;;;10448947;28;20226;-71
2022/04/07 00:23:47;;;;;;;4.90;3.60;;;10.90;99.90;;;;;;10448365;28;20218;-71
2022/04/07 00:28:47;;;;;;;5.83;3.30;;;11.00;99.90;;;;;;10448833;28;20226;-70
2022/04/07 00:33:48;;;;;;;6.27;2.97;;;11.00;99.90;;;;;;10449163;28;20220;-72
2022/04/07 00:38:49;;;;;;;5.53;2.90;;;10.90;99.90;;;;;;10480754;28;20793;-72
2022/04/07 00:43:51;;;;;;;5.33;3.10;;;10.90;99.90;;;;;;10447145;28;20235;-72
2022/04/07 00:48:51;;;;;;;4.87;2.50;;;10.90;99.90;;;;;;10443604;28;20224;-72
2022/04/07 00:53:52;;;;;;;3.43;2.60;;;10.90;99.90;;;;;;10452790;28;20215;-72
2022/04/07 00:58:53;;;;;;;4.27;2.60;;;10.80;99.90;;;;;;10455805;28;20220;-72
2022/04/07 01:03:58;;;;;;;4.23;2.80;;;10.70;99.90;;;;;;10455193;28;20288;-71
2022/04/07 01:08:58;;;;;;;4.03;2.40;;;10.70;99.90;;;;;;10455377;28;20234;-72
2022/04/07 01:13:59;;;;;;;2.83;2.47;;;10.70;99.90;;;;;;10454996;28;20222;-71
2022/04/07 01:19:00;;;;;;;2.97;2.57;;;10.70;99.90;;;;;;10450939;28;20807;-72
2022/04/07 01:24:09;;;;;;;3.60;2.50;;;10.50;99.90;;;;;;10455217;28;20224;-71
2022/04/07 01:29:15;;;;;;;3.93;2.50;;;10.60;99.90;;;;;;10472303;28;20318;-72
2022/04/07 01:34:17;;;;;;;2.60;2.40;;;10.50;99.90;;;;;;10454923;28;20700;-70
2022/04/07 01:39:24;;;;;;;2.97;2.27;;;10.60;99.90;;;;;;10454639;28;20251;-72
2022/04/07 01:44:26;;;;;;;3.30;2.50;;;10.60;99.90;;;;;;10453651;28;20557;-71
2022/04/07 01:49:27;;;;;;;3.20;2.43;;;10.60;99.90;;;;;;10448650;28;20262;-72
2022/04/07 01:54:28;;;;;;;3.10;2.80;;;10.60;99.90;;;;;;10454303;28;20224;-71
2022/04/07 01:59:29;;;;;;;2.43;2.20;;;10.70;99.90;;;;;;10453943;28;20307;-71
2022/04/07 02:04:30;;;;;;;3.07;2.67;;;10.70;99.90;;;;;;10452803;28;20771;-72
2022/04/07 02:09:33;;;;;;;3.10;2.10;;;10.70;99.90;;;;;;10485584;28;20599;-72
2022/04/07 02:14:34;;;;;;;2.27;1.93;;;10.80;99.90;;;;;;10453001;28;20568;-70
2022/04/07 02:19:35;;;;;;;2.13;1.60;;;10.70;99.90;;;;;;10452268;28;20656;-71
2022/04/07 02:24:38;;;;;;;2.37;1.80;;;10.70;99.90;;;;;;10454723;28;20731;-71
2022/04/07 02:29:38;;;;;;;4.37;1.70;;;10.70;99.90;;;;;;10452578;28;20307;-71
2022/04/07 02:34:41;;;;;;;2.10;1.93;;;10.60;99.90;;;;;;10461119;28;20311;-71
2022/04/07 02:39:41;;;;;;;3.07;1.80;;;10.70;99.90;;;;;;10450255;28;20909;-70
2022/04/07 02:44:42;;;;;;;1.57;1.47;;;10.70;99.90;;;;;;10452195;28;20230;-70
2022/04/07 02:49:42;;;;;;;2.87;1.83;;;10.70;99.90;;;;;;10450140;28;20356;-70
2022/04/07 02:54:43;;;;;;;1.83;1.37;;;10.70;99.90;;;;;;10450842;28;20664;-71
2022/04/07 02:59:43;;;;;;;1.50;1.40;;;10.70;99.90;;;;;;10451681;28;20244;-70
2022/04/07 03:04:44;;;;;;;1.10;1.00;;;10.80;99.90;;;;;;10451405;28;20695;-71
2022/04/07 03:09:48;;;;;;;2.20;1.30;;;10.70;99.90;;;;;;10451107;28;20310;-71
2022/04/07 03:14:48;;;;;;;2.90;1.20;;;10.80;99.90;;;;;;10447914;28;20239;-71
2022/04/07 03:19:49;;;;;;;2.20;1.20;;;10.60;99.90;;;;;;10450770;28;20708;-71
2022/04/07 03:24:49;;;;;;;1.43;1.33;;;10.50;99.90;;;;;;10451147;28;20280;-72
2022/04/07 03:29:50;;;;;;;2.43;1.20;;;10.40;99.90;;;;;;10451254;28;20224;-70
2022/04/07 03:34:51;;;;;;;1.50;1.40;;;10.40;99.90;;;;;;10451859;28;20269;-70
2022/04/07 03:39:52;;;;;;;1.63;1.40;;;10.30;99.90;;;;;;10447591;28;20310;-70
2022/04/07 03:44:52;;;;;;;1.63;1.40;;;10.30;99.90;;;;;;10451048;28;20216;-71
2022/04/07 03:49:53;;;;;;;1.07;1.00;;;10.40;99.90;;;;;;10451157;28;20310;-71
2022/04/07 03:54:53;;;;;;;2.33;1.00;;;10.40;99.90;;;;;;10450904;28;20265;-70
2022/04/07 03:59:54;;;;;;;1.03;0.97;;;10.50;99.90;;;;;;10450336;28;20671;-72
2022/04/07 04:04:55;;;;;;;0.77;0.77;;;10.50;99.90;;;;;;10452708;28;20226;-72
2022/04/07 04:09:55;;;;;;;1.50;1.00;;;10.50;99.90;;;;;;10443113;28;20755;-72
2022/04/07 04:14:56;;;;;;;1.40;1.30;;;10.60;99.90;;;;;;10445970;28;20768;-71
2022/04/07 04:19:56;;;;;;;1.60;1.50;;;10.60;99.90;;;;;;10448796;28;20228;-71
2022/04/07 04:25:00;;;;;;;1.97;1.20;;;10.60;99.90;;;;;;10448889;28;20230;-72
2022/04/07 04:30:01;;;;;;;2.73;1.00;;;10.60;99.90;;;;;;10456666;28;20227;-70
2022/04/07 04:35:03;;;;;;;2.27;1.30;;;10.60;99.90;;;;;;10455411;28;20671;-70
2022/04/07 04:40:07;;;;;;;1.23;1.10;;;10.70;99.90;;;;;;10456307;28;20583;-70
2022/04/07 04:45:07;;;;;;;1.47;1.20;;;10.70;99.90;;;;;;10451574;28;20555;-72
2022/04/07 04:50:08;;;;;;;3.83;1.50;;;10.60;99.90;;;;;;10455566;28;20220;-71
2022/04/07 04:55:10;;;;;;;2.30;1.20;;;10.60;99.90;;;;;;10471536;28;20190;-73
2022/04/07 05:00:12;;;;;;;1.80;1.37;;;10.60;99.90;;;;;;10458303;28;20188;-73
2022/04/07 05:05:15;;;;;;;1.10;0.97;;;10.70;99.90;;;;;;10456587;28;20528;-72
2022/04/07 05:10:15;;;;;;;1.50;0.90;;;10.70;99.90;;;;;;10454775;28;20200;-71
2022/04/07 05:15:16;;;;;;;1.67;1.03;;;10.80;99.90;;;;;;10450704;28;20184;-71
2022/04/07 05:20:20;;;;;;;1.57;0.87;;;10.90;99.90;;;;;;10455480;28;20692;-71
2022/04/07 05:25:20;;;;;;;1.20;0.70;;;11.00;99.90;;;;;;10470816;28;20188;-70
2022/04/07 05:30:21;;;;;;;3.73;1.40;;;11.10;99.90;;;;;;10453749;28;20570;-73
2022/04/07 05:35:26;;;;;;;0.70;0.70;;;11.40;99.90;;;;;;10455052;28;20180;-72
2022/04/07 05:40:26;;;;;;;1.67;0.70;;;11.70;99.90;;;;;;10447992;28;20212;-71
2022/04/07 05:45:28;;;;;;;0.73;0.73;;;11.50;99.90;;;;;;10446747;28;20267;-71
2022/04/07 05:50:28;;;;;;;2.37;0.90;;;11.20;99.90;;;;;;10450864;28;20729;-71
2022/04/07 05:55:32;;;;;;;3.33;0.80;;;11.20;99.90;;;;;;10453168;28;20244;-72
2022/04/07 06:00:33;;;;;;;0.80;0.70;;;11.20;99.90;;;;;;10452165;28;20376;-71
2022/04/07 06:05:35;;;;;;;1.60;0.90;;;11.00;99.90;;;;;;10442626;28;20265;-71
2022/04/07 06:10:36;;;;;;;2.70;0.90;;;10.90;99.90;;;;;;10452483;28;20220;-72
2022/04/07 06:15:36;;;;;;;3.93;0.80;;;11.00;99.90;;;;;;10453608;28;20703;-71
2022/04/07 06:20:37;;;;;;;1.00;0.83;;;10.90;99.90;;;;;;10452588;28;20216;-72
2022/04/07 06:25:37;;;;;;;1.30;0.93;;;10.90;99.90;;;;;;10444722;28;20314;-70
2022/04/07 06:30:38;;;;;;;1.30;0.93;;;10.90;99.90;;;;;;10452446;28;20733;-71
2022/04/07 06:35:38;;;;;;;1.37;0.60;;;11.00;99.90;;;;;;10451500;28;20294;-70
2022/04/07 06:40:39;;;;;;;3.67;0.80;;;11.00;99.90;;;;;;10448718;28;20218;-72
2022/04/07 06:45:40;;;;;;;1.43;0.60;;;11.10;99.90;;;;;;10442434;28;20227;-73
2022/04/07 06:50:41;;;;;;;1.97;0.70;;;11.10;99.90;;;;;;10450901;28;20224;-70
2022/04/07 06:55:43;;;;;;;1.03;0.60;;;11.10;99.90;;;;;;10451146;28;20219;-71
2022/04/07 07:00:45;;;;;;;1.00;0.53;;;11.10;99.90;;;;;;10449906;28;20280;-71
2022/04/07 07:05:46;;;;;;;1.17;0.70;;;11.10;99.90;;;;;;10449526;28;20315;-71
2022/04/07 07:10:48;;;;;;;3.03;1.23;;;11.10;99.90;;;;;;10440959;28;20242;-71
2022/04/07 07:15:49;;;;;;;2.10;0.83;;;11.00;99.90;;;;;;10450814;28;20792;-71
2022/04/07 07:20:50;;;;;;;0.53;0.53;;;11.10;99.90;;;;;;10449221;28;20226;-71
2022/04/07 07:25:51;;;;;;;1.50;0.93;;;11.10;99.90;;;;;;10450126;28;20226;-70
2022/04/07 07:30:54;;;;;;;1.90;0.80;;;11.20;99.90;;;;;;10449403;28;20641;-71
2022/04/07 07:35:55;;;;;;;1.60;0.53;;;11.40;99.90;;;;;;10449963;28;20234;-70
2022/04/07 07:40:55;;;;;;;1.27;0.73;;;11.40;99.90;;;;;;10446721;28;20293;-71
2022/04/07 07:45:56;;;;;;;0.73;0.50;;;11.30;99.90;;;;;;10480789;28;20238;-71
2022/04/07 07:50:58;;;;;;;0.70;0.50;;;11.20;99.90;;;;;;10445956;28;20223;-71
2022/04/07 07:55:58;;;;;;;1.47;0.90;;;11.20;99.90;;;;;;10448805;28;20573;-71
2022/04/07 08:00:59;;;;;;;1.33;0.77;;;11.20;99.90;;;;;;10447641;28;20231;-71
2022/04/07 08:05:59;;;;;;;0.70;0.60;;;11.20;99.90;;;;;;10447381;28;20934;-71
2022/04/07 08:11:00;;;;;;;0.93;0.80;;;11.20;99.90;;;;;;10480966;28;20238;-72
2022/04/07 08:16:01;;;;;;;0.83;0.83;;;11.10;99.90;;;;;;10439013;28;20269;-71
2022/04/07 08:21:01;;;;;;;1.13;0.80;;;11.10;99.90;;;;;;10448418;28;20269;-72
2022/04/07 08:26:02;;;;;;;2.57;0.90;;;11.00;99.90;;;;;;10448487;28;20220;-71
2022/04/07 08:31:02;;;;;;;2.57;0.60;;;11.00;99.90;;;;;;10448134;28;20230;-71
2022/04/07 08:36:03;;;;;;;1.50;0.80;;;11.00;99.90;;;;;;10447275;28;20226;-71
2022/04/07 08:41:09;;;;;;;1.00;0.83;;;11.00;99.90;;;;;;10448911;28;20226;-72
2022/04/07 08:46:14;;;;;;;0.70;0.70;;;11.10;99.90;;;;;;10444647;28;20694;-72
2022/04/07 08:51:16;;;;;;;0.73;0.70;;;11.20;99.90;;;;;;10449087;28;20226;-72
2022/04/07 08:56:16;;;;;;;2.03;0.70;;;11.50;99.90;;;;;;10448310;28;20702;-71
2022/04/07 09:01:17;;;;;;;1.90;0.80;;;11.40;99.90;;;;;;10446696;28;20234;-72
2022/04/07 09:06:20;;;;;;;0.77;0.60;;;11.40;99.90;;;;;;10448856;28;20310;-71
2022/04/07 09:11:21;;;;;;;0.80;0.60;;;11.50;99.90;;;;;;10448018;28;20227;-71
2022/04/07 09:16:22;;;;;;;1.17;0.60;;;11.60;99.90;;;;;;10454903;28;20216;-71
2022/04/07 09:21:23;;;;;;;1.07;0.60;;;11.60;99.90;;;;;;10446734;28;20255;-72
2022/04/07 09:26:24;;;;;;;1.30;0.73;;;11.70;99.90;;;;;;10454741;28;20223;-72
2022/04/07 09:31:26;;;;;;;0.83;0.60;;;11.90;99.90;;;;;;10454819;28;20223;-72
2022/04/07 09:36:27;;;;;;;1.07;0.50;;;12.00;99.90;;;;;;10454785;28;20251;-72
2022/04/07 09:41:29;;;;;;;1.30;0.40;;;12.10;99.90;;;;;;10450074;28;20311;-71
2022/04/07 09:46:35;;;;;;;0.77;0.60;;;12.30;99.90;;;;;;10453437;28;20282;-72
2022/04/07 09:51:48;;;;;;;1.03;0.33;;;12.40;99.90;;;;;;10453971;28;20675;-72
2022/04/07 09:56:49;;;;;;;0.40;0.30;;;12.60;99.90;;;;;;10436371;28;20223;-71
2022/04/07 10:01:51;;;;;;;1.80;0.57;;;12.70;99.90;;;;;;10453984;28;20220;-71
2022/04/07 10:06:54;;;;;;;0.30;0.20;;;12.50;99.90;;;;;;10453488;28;20234;-71
2022/04/07 10:11:55;;;;;;;1.30;0.50;;;12.40;99.90;;;;;;10453272;28;20216;-71
2022/04/07 10:17:02;;;;;;;1.17;0.57;;;12.30;99.90;;;;;;10453322;28;20232;-72
2022/04/07 10:22:40;;;;;;;1.93;0.47;;;12.20;99.90;;;;;;10449849;28;20666;-71
2022/04/07 10:27:54;;;;;;;3.00;0.67;;;12.10;99.90;;;;;;10445194;28;20235;-72
2022/04/07 10:32:58;;;;;;;1.73;0.60;;;12.20;99.90;;;;;;10475811;28;20269;-73
2022/04/07 10:38:04;;;;;;;0.47;0.47;;;12.50;99.90;;;;;;10446620;28;20212;-71
2022/04/07 10:43:31;;;;;;;2.37;0.60;;;12.80;99.90;;;;;;10451907;28;20306;-71
2022/04/07 10:48:37;;;;;;;2.30;0.67;;;12.80;99.90;;;;;;10450163;28;20251;-71
2022/04/07 10:53:39;;;;;;;0.83;0.57;;;12.60;99.90;;;;;;10452287;28;20251;-70
2022/04/07 10:58:46;;;;;;;1.27;0.30;;;12.50;99.90;;;;;;10452142;28;20742;-71
2022/04/07 11:04:18;;;;;;;0.83;0.33;;;12.60;99.90;;;;;;10444190;28;20270;-71
2022/04/07 11:09:22;;;;;;;0.73;0.40;;;12.70;99.90;;;;;;10482480;28;20235;-71
2022/04/07 11:14:27;;;;;;;2.00;0.70;;;12.60;99.90;;;;;;10450556;28;20216;-71
2022/04/07 11:20:03;;;;;;;0.50;0.50;;;12.50;99.90;;;;;;10449548;28;20729;-72
2022/04/07 11:25:04;;;;;;;1.50;0.30;;;12.60;99.90;;;;;;10435582;28;20224;-71
2022/04/07 11:30:07;;;;;;;1.43;0.50;;;12.70;99.90;;;;;;10448625;28;20923;-72
2022/04/07 11:35:17;;;;;;;1.50;0.70;;;12.70;99.90;;;;;;10448276;28;20558;-71
2022/04/07 11:40:18;;;;;;;0.70;0.40;;;12.70;99.90;;;;;;10435991;28;20267;-71
2022/04/07 11:45:19;;;;;;;0.40;0.40;;;12.70;99.90;;;;;;10449093;28;20271;-71
2022/04/07 11:50:19;;;;;;;0.73;0.40;;;12.70;99.90;;;;;;10449370;28;20215;-71
2022/04/07 11:55:32;;;;;;;0.37;0.37;;;12.60;99.90;;;;;;10448615;28;20246;-71
2022/04/07 12:00:32;;;;;;;2.33;0.63;;;12.50;99.90;;;;;;10440523;28;20586;-71
2022/04/07 12:05:38;;;;;;;0.57;0.40;;;12.60;99.90;;;;;;10449453;28;20221;-73
2022/04/07 12:10:39;;;;;;;0.27;0.20;;;12.70;99.90;;;;;;10449243;28;20223;-72
2022/04/07 12:15:40;;;;;;;0.37;0.30;;;12.80;99.90;;;;;;10448591;28;20216;-71
2022/04/07 12:20:40;;;;;;;1.70;0.30;;;12.90;99.90;;;;;;10446861;28;20671;-72
2022/04/07 12:25:42;;;;;;;6.03;0.50;;;13.10;99.90;;;;;;10448711;28;20276;-71
2022/04/07 12:30:44;;;;;;;0.20;0.20;;;13.40;99.90;;;;;;10448657;28;20231;-72
2022/04/07 12:35:46;;;;;;;0.90;0.20;;;13.50;99.90;;;;;;10447814;28;20220;-71
2022/04/07 12:40:48;;;;;;;6.30;0.60;;;13.70;99.90;;;;;;10438968;28;20222;-72
2022/04/07 12:45:58;;;;;;;8.13;1.13;;;14.00;99.90;;;;;;10447683;28;20707;-71
2022/04/07 12:50:59;;;;;;;8.53;0.50;;;14.20;99.90;;;;;;10456177;28;20265;-72
2022/04/07 12:56:16;;;;;;;10.77;0.70;;;14.50;99.90;;;;;;10454964;28;20294;-72
2022/04/07 13:01:23;;;;;;;10.77;0.73;;;14.50;99.90;;;;;;10455570;28;20219;-71
2022/04/07 13:06:24;;;;;;;6.17;0.70;;;14.80;99.90;;;;;;10454220;28;20223;-70
2022/04/07 13:11:41;;;;;;;3.50;0.40;;;14.90;99.90;;;;;;10456224;28;20211;-72
2022/04/07 13:16:44;;;;;;;9.53;0.60;;;14.70;99.90;;;;;;10446218;28;20274;-71
2022/04/07 13:21:45;;;;;;;0.37;0.30;;;14.50;99.90;;;;;;10454846;28;20223;-71
2022/04/07 13:26:47;;;;;;;3.50;0.30;;;14.20;99.90;;;;;;10446641;28;20250;-71
2022/04/07 13:31:48;;;;;;;1.63;0.30;;;14.00;99.90;;;;;;10454204;28;20216;-71
2022/04/07 13:36:48;;;;;;;1.27;0.20;;;13.80;99.90;;;;;;10454024;28;20289;-71
2022/04/07 13:41:49;;;;;;;2.70;0.47;;;13.50;99.90;;;;;;10453479;28;20255;-72
2022/04/07 13:46:50;;;;;;;1.97;0.73;;;13.00;99.90;;;;;;10454309;28;20306;-72
2022/04/07 13:51:50;;;;;;;0.30;0.30;;;12.90;99.90;;;;;;10453425;28;20269;-71
2022/04/07 13:56:51;;;;;;;0.93;0.33;;;12.90;99.90;;;;;;10452278;28;20227;-72
2022/04/07 14:01:51;;;;;;;1.03;0.50;;;13.20;99.90;;;;;;10452652;28;20269;-72
2022/04/07 14:07:00;;;;;;;1.07;0.40;;;13.50;99.90;;;;;;10452437;28;20369;-71
2022/04/07 14:12:01;;;;;;;0.80;0.53;;;13.40;99.90;;;;;;10453332;28;20219;-71
2022/04/07 14:17:01;;;;;;;3.17;0.60;;;13.30;99.90;;;;;;10453226;28;20592;-71
2022/04/07 14:22:02;;;;;;;3.50;0.73;;;13.20;99.90;;;;;;10445498;28;20257;-71
2022/04/07 14:27:03;;;;;;;1.17;0.40;;;13.00;99.90;;;;;;10452101;28;20235;-71
2022/04/07 14:32:05;;;;;;;1.03;0.40;;;12.70;99.90;;;;;;10451916;28;20876;-72
2022/04/07 14:37:05;;;;;;;1.33;0.60;;;12.60;99.90;;;;;;10452442;28;20357;-72
2022/04/07 14:42:06;;;;;;;0.97;0.50;;;12.70;99.90;;;;;;10449754;28;20290;-70
2022/04/07 14:47:07;;;;;;;1.47;0.40;;;13.00;99.90;;;;;;10480050;28;20236;-72
2022/04/07 14:52:07;;;;;;;2.60;0.50;;;13.20;99.90;;;;;;10451705;28;20223;-72
2022/04/07 14:57:11;;;;;;;1.90;0.33;;;13.70;99.90;;;;;;10449826;28;20293;-71
2022/04/07 15:02:12;;;;;;;1.30;0.73;;;14.20;99.90;;;;;;10451460;28;20621;-71
2022/04/07 15:07:13;;;;;;;2.93;0.57;;;14.50;99.90;;;;;;10451215;28;20292;-71
2022/04/07 15:12:13;;;;;;;1.33;0.40;;;14.60;99.90;;;;;;10449482;28;20208;-71
2022/04/07 15:17:14;;;;;;;3.03;0.80;;;14.70;99.90;;;;;;10436333;28;20250;-71
2022/04/07 15:22:15;;;;;;;2.63;0.60;;;14.80;99.90;;;;;;10454626;28;20234;-72
2022/04/07 15:27:15;;;;;;;2.20;0.60;;;14.90;99.90;;;;;;10454925;28;20231;-72
2022/04/07 15:32:17;;;;;;;2.40;0.80;;;15.10;99.90;;;;;;10450962;28;20250;-71
2022/04/07 15:37:18;;;;;;;2.33;0.80;;;14.90;98.40;;;;;;10439727;28;20313;-70
2022/04/07 15:42:19;;;;;;;3.20;1.00;;;14.70;93.10;;;;;;10449440;28;20226;-71
2022/04/07 15:47:19;;;;;;;2.70;0.70;;;14.60;90.20;;;;;;10449711;28;20227;-71
2022/04/07 15:52:20;;;;;;;0.93;0.53;;;14.70;90.80;;;;;;10446565;28;20208;-72
2022/04/07 15:57:20;;;;;;;4.73;0.90;;;14.60;92.50;;;;;;10450814;28;20215;-71
2022/04/07 16:02:21;;;;;;;2.80;0.77;;;14.50;93.70;;;;;;10449598;28;20250;-71
2022/04/07 16:07:25;;;;;;;2.87;1.10;;;14.40;91.00;;;;;;10449986;28;20586;-72
2022/04/07 16:12:25;;;;;;;3.40;0.97;;;14.20;88.90;;;;;;10447792;28;20247;-71
2022/04/07 16:17:26;;;;;;;4.30;1.10;;;14.00;79.50;;;;;;10446943;28;20257;-70
2022/04/07 16:22:26;;;;;;;2.90;0.90;;;13.90;75.80;;;;;;10452064;28;20233;-71
2022/04/07 16:27:27;;;;;;;3.93;1.07;;;13.70;71.60;;;;;;10454750;28;20318;-70
2022/04/07 16:32:27;;;;;;;3.43;0.97;;;13.60;71.00;;;;;;10455721;28;20222;-71
2022/04/07 16:37:28;;;;;;;2.17;0.80;;;13.50;67.40;;;;;;10456838;28;20227;-71
2022/04/07 16:42:29;;;;;;;1.63;0.73;;;13.30;69.60;;;;;;10461821;28;20293;-73
2022/04/07 16:47:29;;;;;;;4.17;0.93;;;13.20;70.10;;;;;;10454832;28;20310;-72
2022/04/07 16:52:30;;;;;;;4.23;0.90;;;13.00;71.60;;;;;;10456109;28;20249;-71
2022/04/07 16:57:30;;;;;;;4.27;1.20;;;13.00;73.10;;;;;;10456008;28;20250;-72
2022/04/07 17:02:35;;;;;;;5.77;1.40;;;12.90;74.40;;;;;;10451797;28;20234;-72
2022/04/07 17:07:36;;;;;;;2.83;1.00;;;12.80;75.60;;;;;;10450936;28;20734;-71
2022/04/07 17:12:41;;;;;;;4.33;1.10;;;12.70;73.60;;;;;;10454824;28;20268;-71
2022/04/07 17:17:44;;;;;;;3.80;1.00;;;12.50;74.10;;;;;;10448026;28;20705;-70
2022/04/07 17:22:47;;;;;;;3.57;1.07;;;12.40;71.90;;;;;;10445322;28;20265;-72
2022/04/07 17:27:47;;;;;;;5.13;1.20;;;12.30;71.00;;;;;;10445929;28;20220;-72
2022/04/07 17:32:48;;;;;;;2.77;1.00;;;12.30;70.40;;;;;;10487119;28;20224;-71
2022/04/07 17:37:49;;;;;;;4.20;0.80;;;12.20;71.20;;;;;;10488475;28;20219;-70
2022/04/07 17:42:49;;;;;;;4.47;1.17;;;12.20;70.80;;;;;;10452739;28;20227;-71
2022/04/07 17:47:50;;;;;;;2.53;1.10;;;12.10;69.20;;;;;;10454662;28;20753;-72
2022/04/07 17:52:50;;;;;;;2.97;1.10;;;12.10;68.30;;;;;;10454913;28;20243;-71
2022/04/07 17:57:51;;;;;;;4.67;1.00;;;12.00;69.20;;;;;;10454769;28;20220;-73
2022/04/07 18:02:52;;;;;;;5.33;1.27;;;12.00;68.90;;;;;;10455962;28;20711;-70
2022/04/07 18:07:53;;;;;;;5.13;1.17;;;11.90;68.20;;;;;;10453765;28;20256;-71
2022/04/07 18:12:54;;;;;;;5.60;1.50;;;11.90;68.00;;;;;;10447991;28;20266;-71
2022/04/07 18:17:54;;;;;;;3.27;1.10;;;11.80;68.20;;;;;;10452722;28;20235;-71
2022/04/07 18:22:56;;;;;;;3.93;1.00;;;11.70;70.20;;;;;;10452029;28;20222;-71
2022/04/07 18:27:57;;;;;;;5.80;1.57;;;11.60;70.20;;;;;;10444662;28;20269;-71
2022/04/07 18:32:57;;;;;;;4.30;1.30;;;11.50;71.00;;;;;;10452789;28;20222;-71
2022/04/07 18:37:58;;;;;;;1.87;0.80;;;11.30;70.70;;;;;;10447134;28;20219;-72
2022/04/07 18:42:59;;;;;;;3.13;1.10;;;11.30;70.70;;;;;;10453753;28;20284;-72
2022/04/07 18:48:01;;;;;;;3.23;1.60;;;11.20;73.10;;;;;;10451527;28;20232;-72
2022/04/07 18:53:01;;;;;;;2.67;0.80;;;11.10;74.50;;;;;;10482033;28;20863;-72
2022/04/07 18:58:02;;;;;;;3.00;0.97;;;11.00;73.50;;;;;;10451217;28;20251;-71
2022/04/07 19:03:04;;;;;;;3.60;1.03;;;11.00;71.10;;;;;;10449523;28;20242;-71
2022/04/07 19:08:05;;;;;;;5.47;1.37;;;11.00;68.00;;;;;;10449615;28;20238;-71
2022/04/07 19:13:05;;;;;;;2.77;1.03;;;11.00;68.30;;;;;;10449669;28;20360;-71
2022/04/07 19:18:06;;;;;;;3.87;1.40;;;10.90;72.50;;;;;;10450057;28;20249;-71
2022/04/07 19:23:07;;;;;;;3.40;0.93;;;10.80;75.40;;;;;;10447413;28;20226;-72
2022/04/07 19:28:09;;;;;;;5.03;1.27;;;10.70;77.40;;;;;;10445812;28;20226;-72
2022/04/07 19:33:10;;;;;;;4.77;1.53;;;10.60;76.40;;;;;;10449244;28;20219;-71
2022/04/07 19:38:11;;;;;;;5.17;1.70;;;10.70;74.50;;;;;;10443829;28;20223;-72
2022/04/07 19:43:11;;;;;;;2.20;1.00;;;10.60;77.60;;;;;;10452848;28;20222;-71
2022/04/07 19:48:12;;;;;;;3.93;1.23;;;10.50;79.80;;;;;;10454437;28;20691;-71
2022/04/07 19:53:13;;;;;;;5.87;1.70;;;10.40;81.20;;;;;;10453424;28;21015;-72
2022/04/07 19:58:13;;;;;;;6.00;1.40;;;10.30;81.60;;;;;;10463049;28;20215;-74
2022/04/07 20:03:14;;;;;;;5.33;1.60;;;10.20;80.30;;;;;;10452584;28;20360;-71
2022/04/07 20:08:15;;;;;;;5.30;1.90;;;10.20;78.50;;;;;;10451031;28;20560;-73
2022/04/07 20:13:16;;;;;;;5.13;1.20;;;10.20;77.90;;;;;;10446804;28;20311;-73
2022/04/07 20:18:18;;;;;;;4.97;1.20;;;10.10;77.50;;;;;;10441661;28;20557;-72
2022/04/07 20:23:19;;;;;;;6.37;1.60;;;10.10;78.00;;;;;;10439482;28;20258;-72
2022/04/07 20:28:20;;;;;;;6.27;1.50;;;9.90;79.20;;;;;;10446583;28;20318;-72
2022/04/07 20:33:20;;;;;;;4.23;1.70;;;9.90;80.00;;;;;;10453839;28;20223;-73
2022/04/07 20:38:21;;;;;;;4.03;1.10;;;9.80;79.00;;;;;;10454292;28;20626;-73
2022/04/07 20:43:23;;;;;;;4.07;1.30;;;9.90;76.70;;;;;;10448363;28;20238;-73
2022/04/07 20:48:25;;;;;;;5.37;2.00;;;9.90;77.60;;;;;;10452802;28;20234;-72
2022/04/07 20:53:26;;;;;;;5.57;1.93;;;9.90;78.70;;;;;;10477970;28;20276;-71
2022/04/07 20:58:27;;;;;;;4.47;1.20;;;9.80;79.60;;;;;;10453345;28;20246;-72
2022/04/07 21:03:27;;;;;;;7.07;1.83;;;9.80;80.60;;;;;;10447663;28;20230;-72
2022/04/07 21:08:28;;;;;;;4.37;1.63;;;9.70;81.80;;;;;;10437733;28;20241;-73
2022/04/07 21:13:29;;;;;;;4.83;1.13;;;9.70;80.60;;;;;;10461057;28;20223;-72
2022/04/07 21:18:30;;;;;;;7.00;1.67;;;9.70;80.30;;;;;;10472611;28;20220;-72
2022/04/07 21:23:31;;;;;;;4.60;1.50;;;9.70;81.20;;;;;;10454650;28;20326;-73
2022/04/07 21:28:32;;;;;;;4.47;1.00;;;9.60;79.50;;;;;;10452863;28;20646;-72
2022/04/07 21:33:33;;;;;;;4.57;1.33;;;9.60;77.70;;;;;;10482914;28;20264;-72
2022/04/07 21:38:34;;;;;;;3.93;1.30;;;9.70;75.70;;;;;;10457768;28;20717;-72
2022/04/07 21:43:35;;;;;;;8.50;1.50;;;9.70;73.40;;;;;;10453791;28;20254;-73
2022/04/07 21:48:36;;;;;;;3.50;1.37;;;9.60;73.60;;;;;;10459718;28;20322;-71
2022/04/07 21:53:37;;;;;;;4.53;1.30;;;9.60;74.00;;;;;;10455278;28;20930;-72
2022/04/07 21:58:39;;;;;;;3.67;1.47;;;9.50;74.50;;;;;;10462780;28;20235;-72
2022/04/07 22:03:40;;;;;;;5.70;1.50;;;9.40;77.10;;;;;;10446848;28;20314;-70
2022/04/07 22:08:41;;;;;;;3.87;1.17;;;9.40;77.30;;;;;;10452392;28;20236;-71
2022/04/07 22:13:44;;;;;;;6.80;1.30;;;9.50;77.00;;;;;;10462421;28;20222;-74
2022/04/07 22:18:46;;;;;;;9.27;1.73;;;9.50;76.80;;;;;;10457750;28;20228;-70
2022/04/07 22:23:47;;;;;;;3.90;1.37;;;9.60;77.10;;;;;;10490410;28;20317;-74
2022/04/07 22:28:47;;;;;;;5.37;1.23;;;9.60;77.90;;;;;;10457216;28;20337;-72
2022/04/07 22:33:48;;;;;;;3.87;1.33;;;9.60;77.40;;;;;;10458136;28;20223;-73
2022/04/07 22:38:49;;;;;;;6.77;1.40;;;9.60;77.60;;;;;;10454238;28;20230;-72
2022/04/07 22:43:49;;;;;;;5.10;1.80;;;9.40;77.60;;;;;;10455088;28;20237;-71
2022/04/07 22:48:50;;;;;;;4.03;1.20;;;9.40;78.00;;;;;;10465271;28;20242;-71
2022/04/07 22:53:50;;;;;;;4.90;1.53;;;9.40;78.50;;;;;;10469927;28;20314;-71
2022/04/07 22:58:51;;;;;;;5.53;1.30;;;9.30;80.00;;;;;;10467556;28;20222;-72
2022/04/07 23:03:53;;;;;;;7.00;1.33;;;9.30;79.70;;;;;;10460513;28;20226;-71
2022/04/07 23:08:53;;;;;;;4.77;1.57;;;9.30;80.20;;;;;;10475891;28;20229;-72
2022/04/07 23:13:57;;;;;;;9.17;1.40;;;9.30;80.80;;;;;;10457155;28;20685;-73
2022/04/07 23:18:59;;;;;;;5.03;1.50;;;9.30;81.30;;;;;;10464013;28;20623;-73
2022/04/07 23:24:00;;;;;;;5.63;1.40;;;9.20;82.10;;;;;;10455336;28;20296;-72
2022/04/07 23:29:01;;;;;;;7.50;1.70;;;9.20;82.30;;;;;;10453460;28;20271;-72
2022/04/07 23:34:02;;;;;;;5.60;1.47;;;9.20;83.10;;;;;;10468184;28;20267;-72
2022/04/07 23:39:02;;;;;;;7.27;1.50;;;9.20;83.70;;;;;;10453867;28;20223;-72
2022/04/07 23:44:10;;;;;;;9.03;1.73;;;9.10;84.60;;;;;;10439903;28;20257;-71
2022/04/07 23:49:13;;;;;;;7.13;1.33;;;9.10;84.40;;;;;;10449512;28;20232;-75
2022/04/07 23:54:14;;;;;;;9.23;1.60;;;9.20;85.10;;;;;;10451523;28;20228;-74
2022/04/07 23:59:15;;;;;;;7.50;1.90;;;9.10;86.00;;;;;;10451263;28;20240;-72
